Artemis — DJA57N — position and weather

sailwx.info

Track history (hours):
 
Tides and Currents Weather Stations Pressure Air Temp Water Temp Dewpoint Dewpoint Depression Visibility Wind Speed Wind Dir Waves Ship Positions

Artemis

Last reported at 2017-Aug-21 08:36 UTC. Time now 2017-Sep-21 12:20 UTC.
Position S 27°38' E 153°21'.
Warning: this ship's position is 31 days out of date.

Length 18 m.

Type: Pleasure craft. MMSI: 503054650.

Date/timePositionNaut miles runAvg speedWind from/ knotsBaromVisibWave heightAir tempDewpointWater temp
2017-Aug-21 08:36S 27°38' E 153°21'218.8
2017-Aug-21 08:30S 27°40' E 153°22'713.4
2017-Aug-21 08:00S 27°47' E 153°22'611.8
2017-Aug-21 07:30S 27°53' E 153°24'3 5.3
2017-Aug-21 07:00S 27°51' E 153°21'2 3.0
2017-Aug-21 06:30S 27°52' E 153°20'0 0.0
2017-Aug-21 06:00S 27°52' E 153°20'0 0.0
2017-Aug-21 05:29S 27°52' E 153°20'0 0.0
2017-Aug-21 04:56S 27°52' E 153°20'0 0.0
2017-Aug-21 04:29S 27°52' E 153°20'0 0.0
2017-Aug-21 04:00S 27°52' E 153°20'0 0.0
2017-Aug-21 03:27S 27°52' E 153°20'0 0.0
2017-Aug-21 02:55S 27°52' E 153°20'0 0.0
2017-Aug-21 02:30S 27°52' E 153°20'0 0.0
2017-Aug-21 01:57S 27°52' E 153°20'0 0.0
2017-Aug-21 01:30S 27°52' E 153°20'0 0.0
2017-Aug-21 00:59S 27°52' E 153°20'0 0.0
2017-Aug-21 00:24S 27°52' E 153°20'0 0.0
2017-Aug-21 00:00S 27°52' E 153°20'0 0.0
2017-Aug-20 23:27S 27°52' E 153°20'0 0.0
2017-Aug-20 22:54S 27°52' E 153°20'0 0.0
2017-Aug-20 22:27S 27°52' E 153°20'0 0.0
2017-Aug-20 21:57S 27°52' E 153°20'0 0.0
2017-Aug-20 06:39S 27°52' E 153°20'0 0.0
2017-Aug-20 06:27S 27°52' E 153°20'0 0.0
2017-Aug-20 05:55S 27°52' E 153°20'0 0.0
2017-Aug-20 05:25S 27°52' E 153°20'0 0.0
2017-Aug-20 04:55S 27°52' E 153°20'0 0.0
2017-Aug-20 04:28S 27°52' E 153°20'0 0.0
2017-Aug-20 03:55S 27°52' E 153°20'0 0.0
2017-Aug-20 03:25S 27°52' E 153°20'0 0.0
2017-Aug-20 02:10S 27°52' E 153°20'0 0.0
2017-Aug-20 01:55S 27°52' E 153°20'0 0.0
2017-Aug-20 01:28S 27°52' E 153°20'0 0.0
2017-Aug-20 00:55S 27°52' E 153°20'0 0.0
2017-Aug-20 00:28S 27°52' E 153°20'0 0.0
2017-Aug-19 23:58S 27°52' E 153°20'0 0.0
2017-Aug-19 23:28S 27°52' E 153°20'0 0.0
2017-Aug-19 08:35S 27°52' E 153°20'0 0.0
2017-Aug-19 08:23S 27°52' E 153°20'0 0.0
2017-Aug-18 10:30S 27°52' E 153°20'0 0.0
2017-Aug-18 09:59S 27°52' E 153°20'0 0.0
2017-Aug-18 09:28S 27°52' E 153°20'0 0.0
2017-Aug-18 08:58S 27°52' E 153°20'0 0.0
2017-Aug-18 08:21S 27°52' E 153°20'0 0.0
2017-Aug-18 08:00S 27°52' E 153°20'0 0.0
2017-Aug-18 07:30S 27°52' E 153°20'0 0.0
2017-Aug-18 07:00S 27°52' E 153°20'0 0.0
2017-Aug-18 06:30S 27°52' E 153°20'0 0.0
2017-Aug-18 06:00S 27°52' E 153°20'0 0.0
2017-Aug-18 05:28S 27°52' E 153°20'0 0.0
2017-Aug-18 04:55S 27°52' E 153°20'0 0.0
2017-Aug-18 04:28S 27°52' E 153°20'0 0.0
2017-Aug-18 03:59S 27°52' E 153°20'0 0.0
2017-Aug-18 03:29S 27°52' E 153°20'0 0.0
2017-Aug-18 02:56S 27°52' E 153°20'0 0.0
2017-Aug-18 02:29S 27°52' E 153°20'0 0.0
2017-Aug-17 22:46S 27°52' E 153°20'0 0.0
2017-Aug-17 22:28S 27°52' E 153°20'0 0.0
2017-Aug-17 05:58S 27°52' E 153°20'0 0.0
2017-Aug-17 05:31S 27°52' E 153°20'0 0.0
2017-Aug-17 04:58S 27°52' E 153°20'0 0.0
2017-Aug-17 04:30S 27°52' E 153°20'0 0.0
2017-Aug-17 03:57S 27°52' E 153°20'0 0.0
2017-Aug-17 03:30S 27°52' E 153°20'0 0.0
2017-Aug-17 03:00S 27°52' E 153°20'0 0.0
2017-Aug-17 02:30S 27°52' E 153°20'0 0.0
2017-Aug-17 02:00S 27°52' E 153°20'0 0.0
2017-Aug-17 01:28S 27°52' E 153°20'0 0.0
2017-Aug-17 00:49S 27°52' E 153°20'0 0.0
2017-Aug-17 00:28S 27°52' E 153°20'0 0.0
2017-Aug-16 23:58S 27°52' E 153°20'0 0.0
2017-Aug-16 23:22S 27°52' E 153°20'0 0.0
2017-Aug-16 23:00S 27°52' E 153°20'0 0.0
2017-Aug-16 07:42S 27°52' E 153°20'0 0.2
2017-Aug-16 07:24S 27°52' E 153°20'2 4.4
2017-Aug-16 07:01S 27°51' E 153°22'3 6.6
2017-Aug-16 06:30S 27°53' E 153°25'  
2017-Aug-12 06:20S 27°58' E 153°26'0 0.1
2017-Aug-12 05:47S 27°58' E 153°26'2 5.2
2017-Aug-12 05:29S 27°57' E 153°25'13 1.9
2017-Aug-11 22:27S 28°01' E 153°39'2 3.7
2017-Aug-11 22:00S 28°00' E 153°38'918.3
2017-Aug-11 21:30S 27°55' E 153°30'0 0.6
2017-Aug-11 20:57S 27°55' E 153°29'0 0.3
2017-Aug-11 20:30S 27°55' E 153°29'  
Track history (hours):
 
Tides and Currents Weather Stations Pressure Air Temp Water Temp Dewpoint Dewpoint Depression Visibility Wind Speed Wind Dir Waves Ship Positions

Artemis

Last reported at 2017-Aug-21 08:36 UTC. Time now 2017-Sep-21 12:20 UTC.
Position S 27°38' E 153°21'.
Warning: this ship's position is 31 days out of date.

Length 18 m.

Type: Pleasure craft. MMSI: 503054650.

Date/timePositionNaut miles runAvg speedWind from/ knotsBaromVisibWave heightAir tempDewpointWater temp
2017-Aug-21 08:36S 27°38' E 153°21'218.8
2017-Aug-21 08:30S 27°40' E 153°22'713.4
2017-Aug-21 08:00S 27°47' E 153°22'611.8
2017-Aug-21 07:30S 27°53' E 153°24'3 5.3
2017-Aug-21 07:00S 27°51' E 153°21'2 3.0
2017-Aug-21 06:30S 27°52' E 153°20'0 0.0
2017-Aug-21 06:00S 27°52' E 153°20'0 0.0
2017-Aug-21 05:29S 27°52' E 153°20'0 0.0
2017-Aug-21 04:56S 27°52' E 153°20'0 0.0
2017-Aug-21 04:29S 27°52' E 153°20'0 0.0
2017-Aug-21 04:00S 27°52' E 153°20'0 0.0
2017-Aug-21 03:27S 27°52' E 153°20'0 0.0
2017-Aug-21 02:55S 27°52' E 153°20'0 0.0
2017-Aug-21 02:30S 27°52' E 153°20'0 0.0
2017-Aug-21 01:57S 27°52' E 153°20'0 0.0
2017-Aug-21 01:30S 27°52' E 153°20'0 0.0
2017-Aug-21 00:59S 27°52' E 153°20'0 0.0
2017-Aug-21 00:24S 27°52' E 153°20'0 0.0
2017-Aug-21 00:00S 27°52' E 153°20'0 0.0
2017-Aug-20 23:27S 27°52' E 153°20'0 0.0
2017-Aug-20 22:54S 27°52' E 153°20'0 0.0
2017-Aug-20 22:27S 27°52' E 153°20'0 0.0
2017-Aug-20 21:57S 27°52' E 153°20'0 0.0
2017-Aug-20 06:39S 27°52' E 153°20'0 0.0
2017-Aug-20 06:27S 27°52' E 153°20'0 0.0
2017-Aug-20 05:55S 27°52' E 153°20'0 0.0
2017-Aug-20 05:25S 27°52' E 153°20'0 0.0
2017-Aug-20 04:55S 27°52' E 153°20'0 0.0
2017-Aug-20 04:28S 27°52' E 153°20'0 0.0
2017-Aug-20 03:55S 27°52' E 153°20'0 0.0
2017-Aug-20 03:25S 27°52' E 153°20'0 0.0
2017-Aug-20 02:10S 27°52' E 153°20'0 0.0
2017-Aug-20 01:55S 27°52' E 153°20'0 0.0
2017-Aug-20 01:28S 27°52' E 153°20'0 0.0
2017-Aug-20 00:55S 27°52' E 153°20'0 0.0
2017-Aug-20 00:28S 27°52' E 153°20'0 0.0
2017-Aug-19 23:58S 27°52' E 153°20'0 0.0
2017-Aug-19 23:28S 27°52' E 153°20'0 0.0
2017-Aug-19 08:35S 27°52' E 153°20'0 0.0
2017-Aug-19 08:23S 27°52' E 153°20'0 0.0
2017-Aug-18 10:30S 27°52' E 153°20'0 0.0
2017-Aug-18 09:59S 27°52' E 153°20'0 0.0
2017-Aug-18 09:28S 27°52' E 153°20'0 0.0
2017-Aug-18 08:58S 27°52' E 153°20'0 0.0
2017-Aug-18 08:21S 27°52' E 153°20'0 0.0
2017-Aug-18 08:00S 27°52' E 153°20'0 0.0
2017-Aug-18 07:30S 27°52' E 153°20'0 0.0
2017-Aug-18 07:00S 27°52' E 153°20'0 0.0
2017-Aug-18 06:30S 27°52' E 153°20'0 0.0
2017-Aug-18 06:00S 27°52' E 153°20'0 0.0
2017-Aug-18 05:28S 27°52' E 153°20'0 0.0
2017-Aug-18 04:55S 27°52' E 153°20'0 0.0
2017-Aug-18 04:28S 27°52' E 153°20'0 0.0
2017-Aug-18 03:59S 27°52' E 153°20'0 0.0
2017-Aug-18 03:29S 27°52' E 153°20'0 0.0
2017-Aug-18 02:56S 27°52' E 153°20'0 0.0
2017-Aug-18 02:29S 27°52' E 153°20'0 0.0
2017-Aug-17 22:46S 27°52' E 153°20'0 0.0
2017-Aug-17 22:28S 27°52' E 153°20'0 0.0
2017-Aug-17 05:58S 27°52' E 153°20'0 0.0
2017-Aug-17 05:31S 27°52' E 153°20'0 0.0
2017-Aug-17 04:58S 27°52' E 153°20'0 0.0
2017-Aug-17 04:30S 27°52' E 153°20'0 0.0
2017-Aug-17 03:57S 27°52' E 153°20'0 0.0
2017-Aug-17 03:30S 27°52' E 153°20'0 0.0
2017-Aug-17 03:00S 27°52' E 153°20'0 0.0
2017-Aug-17 02:30S 27°52' E 153°20'0 0.0
2017-Aug-17 02:00S 27°52' E 153°20'0 0.0
2017-Aug-17 01:28S 27°52' E 153°20'0 0.0
2017-Aug-17 00:49S 27°52' E 153°20'0 0.0
2017-Aug-17 00:28S 27°52' E 153°20'0 0.0
2017-Aug-16 23:58S 27°52' E 153°20'0 0.0
2017-Aug-16 23:22S 27°52' E 153°20'0 0.0
2017-Aug-16 23:00S 27°52' E 153°20'0 0.0
2017-Aug-16 07:42S 27°52' E 153°20'0 0.2
2017-Aug-16 07:24S 27°52' E 153°20'2 4.4
2017-Aug-16 07:01S 27°51' E 153°22'3 6.6
2017-Aug-16 06:30S 27°53' E 153°25'  
2017-Aug-12 06:20S 27°58' E 153°26'0 0.1
2017-Aug-12 05:47S 27°58' E 153°26'2 5.2
2017-Aug-12 05:29S 27°57' E 153°25'13 1.9
2017-Aug-11 22:27S 28°01' E 153°39'2 3.7
2017-Aug-11 22:00S 28°00' E 153°38'918.3
2017-Aug-11 21:30S 27°55' E 153°30'0 0.6
2017-Aug-11 20:57S 27°55' E 153°29'0 0.3
2017-Aug-11 20:30S 27°55' E 153°29'  

Dump ship's entire track history